ADDS METAR Data INFO
IDs: Format: Raw Decoded Include TAF

Data at: 1244 UTC 19 Oct 2017

KRHP 191220Z AUTO 00000KT 10SM CLR 02/02 A3035 RMK AO2 T00150015
KRHP 191200Z AUTO 00000KT 10SM CLR 01/01 A3034 RMK AO2 T00060006
KRHP 191140Z AUTO 00000KT 10SM CLR 01/01 A3033 RMK AO2 T00070007
KRHP 191120Z AUTO 00000KT 10SM CLR 01/01 A3033 RMK AO2 T00080008
KRHP 191100Z AUTO 00000KT 7SM CLR 00/00 A3033 RMK AO2 T00040004
KRHP 191040Z AUTO 00000KT 10SM CLR 01/01 A3032 RMK AO2 T00060006
KRHP 191020Z AUTO 00000KT 10SM CLR 01/01 A3032 RMK AO2 T00080008
KRHP 191000Z AUTO 00000KT 10SM SCT001 01/01 A3032 RMK AO2 T00120012
KRHP 190940Z AUTO 00000KT 3/4SM BR OVC001 01/01 A3032 RMK AO2 T00100010
KRHP 190920Z AUTO 00000KT 3/4SM BR OVC001 01/01 A3031 RMK AO2 T00140014
KRHP 190900Z AUTO 00000KT 1/2SM FG OVC001 01/01 A3031 RMK AO2 T00120012
KRHP 190840Z AUTO 00000KT 3/4SM BR BKN001 01/01 A3031 RMK AO2 T00110011
KRHP 190820Z AUTO 00000KT 1 1/2SM BR VV007 02/02 A3031 RMK AO2 T00190019
KRHP 190800Z AUTO 00000KT 2SM BR BKN002 02/02 A3031 RMK AO2 T00190019
KRHP 190740Z AUTO 00000KT 7SM SCT002 02/02 A3031 RMK AO2 T00200020
KRHP 190720Z AUTO 00000KT 10SM SCT002 02/02 A3031 RMK AO2 T00180018
KRHP 190700Z AUTO 00000KT 1SM BR VV007 02/02 A3031 RMK AO2 T00190019
KRHP 190640Z AUTO 00000KT 7SM CLR 03/03 A3032 RMK AO2 T00310031
KRHP 190620Z AUTO 00000KT 10SM SCT002 03/03 A3032 RMK AO2 T00290029
KRHP 190600Z AUTO 00000KT 5SM BR SCT002 03/03 A3032 RMK AO2 T00320032
KRHP 190540Z AUTO 00000KT 7SM CLR 03/03 A3032 RMK AO2 T00310031
KRHP 190520Z AUTO 00000KT 7SM CLR 04/04 A3032 RMK AO2 T00400040
KRHP 190500Z AUTO 00000KT 7SM CLR 04/04 A3033 RMK AO2 T00350035
KRHP 190440Z AUTO 00000KT 10SM CLR 05/05 A3033 RMK AO2 T00450045
KRHP 190420Z AUTO 00000KT 10SM CLR 04/04 A3033 RMK AO2 T00440044
KRHP 190400Z AUTO 00000KT 3SM BR CLR 05/05 A3034 RMK AO2 T00490049
KRHP 190340Z AUTO 00000KT 10SM CLR 05/05 A3034 RMK AO2 T00520052
KRHP 190320Z AUTO 00000KT 10SM CLR 06/06 A3034 RMK AO2 T00560056
KRHP 190300Z AUTO 00000KT 10SM CLR 05/05 A3034 RMK AO2 T00500050
KRHP 190240Z AUTO 00000KT 10SM CLR 06/06 A3033 RMK AO2 T00580058
KRHP 190220Z AUTO 00000KT 10SM CLR 06/06 A3033 RMK AO2 T00610061
KRHP 190200Z AUTO 00000KT 10SM CLR 07/07 A3033 RMK AO2 T00680067
KRHP 190140Z AUTO 00000KT 10SM CLR 08/07 A3032 RMK AO2 T00750073
KRHP 190120Z AUTO 00000KT 10SM CLR 08/07 A3031 RMK AO2 T00750071
KRHP 190100Z AUTO 00000KT 10SM CLR 08/08 A3031 RMK AO2 T00800076
KRHP 190040Z AUTO 00000KT 10SM CLR 09/08 A3031 RMK AO2 T00860076
KRHP 190020Z AUTO 00000KT 10SM CLR 09/08 A3030 RMK AO2 T00880075
KRHP 190000Z AUTO 00000KT 10SM CLR 10/08 A3030 RMK AO2 T01040078
KRHP 182340Z AUTO 00000KT 10SM CLR 11/08 A3029 RMK AO2 T01070080
KRHP 182320Z AUTO 00000KT 10SM CLR 12/08 A3028 RMK AO2 T01240083
KRHP 182300Z AUTO 35003KT 10SM CLR 14/08 A3028 RMK AO2 T01400082
KRHP 182240Z AUTO 00000KT 10SM CLR 16/08 A3027 RMK AO2 T01570075
KRHP 182220Z AUTO 00000KT 10SM CLR 17/08 A3027 RMK AO2 T01680079
KRHP 182200Z AUTO 00000KT 10SM CLR 21/06 A3027 RMK AO2 T02110057
KRHP 182140Z AUTO 24005KT 10SM CLR 22/04 A3026 RMK AO2 T02210035
KRHP 182120Z AUTO 26005KT 10SM CLR 23/02 A3027 RMK AO2 T02250021
KRHP 182100Z AUTO 25005KT 10SM CLR 23/03 A3026 RMK AO2 T02290030
KRHP 182040Z AUTO 24006KT 10SM CLR 23/04 A3026 RMK AO2 T02300037
KRHP 182020Z AUTO 22005KT 10SM CLR 23/04 A3026 RMK AO2 T02270038
KRHP 182000Z AUTO 28005KT 10SM CLR 23/05 A3027 RMK AO2 T02280048
KRHP 181940Z AUTO 26005KT 10SM CLR 23/05 A3027 RMK AO2 T02290047
KRHP 181920Z AUTO 23005KT 10SM CLR 23/06 A3027 RMK AO2 T02290056
KRHP 181900Z AUTO 00000KT 10SM CLR 22/05 A3028 RMK AO2 T02230051
KRHP 181840Z AUTO 25006KT 10SM CLR 22/06 A3029 RMK AO2 T02190064
KRHP 181820Z AUTO 32003KT 10SM CLR 22/07 A3030 RMK AO2 T02150065
KRHP 181800Z AUTO 30003KT 10SM CLR 21/07 A3031 RMK AO2 T02120067
KRHP 181740Z AUTO 00000KT 10SM CLR 21/07 A3032 RMK AO2 T02060068
KRHP 181720Z AUTO 21003KT 10SM CLR 20/05 A3034 RMK AO2 T02000053
KRHP 181700Z AUTO 24005KT 10SM CLR 20/06 A3034 RMK AO2 T01960060
KRHP 181640Z AUTO 00000KT 10SM CLR 18/07 A3035 RMK AO2 T01770066
KRHP 181615Z AUTO 18003KT 10SM CLR 17/08 A3035 RMK AO2 T01720080
KRHP 181600Z AUTO 21003KT 10SM CLR 16/08 A3036 RMK AO2 T01620081
KRHP 181540Z AUTO 00000KT 10SM CLR 14/08 A3036 RMK AO2 T01440083
KRHP 181520Z AUTO 00000KT 10SM CLR 12/09 A3037 RMK AO2 T01220090
KRHP 181500Z AUTO 00000KT 10SM CLR 11/09 A3037 RMK AO2 T01060088
KRHP 181440Z AUTO 00000KT 10SM CLR 10/09 A3037 RMK AO2 T00960092
KRHP 181420Z AUTO 00000KT 10SM CLR 08/08 A3037 RMK AO2 T00840084
KRHP 181400Z AUTO 00000KT 10SM CLR 08/08 A3037 RMK AO2 T00750075
KRHP 181340Z AUTO 00000KT 10SM SCT002 06/06 A3037 RMK AO2 T00620062
KRHP 181320Z AUTO 00000KT 4SM BR BKN002 05/05 A3037 RMK AO2 T00510051
KRHP 181300Z AUTO 00000KT 1/2SM FG OVC002 03/03 A3037 RMK AO2 T00320032
KRHP 181240Z AUTO 00000KT 1/4SM FG OVC002 03/03 A3037 RMK AO2 T00280028